createdAt,value
2022-09-21T00:01:15.071Z,1.88
2022-09-21T00:03:43.692Z,2.55
2022-09-21T00:06:13.272Z,2.70
2022-09-21T00:08:41.256Z,2.67
2022-09-21T00:11:13.099Z,2.50
2022-09-21T00:13:42.199Z,2.47
2022-09-21T00:16:11.646Z,2.58
2022-09-21T00:18:40.142Z,2.88
2022-09-21T00:21:09.162Z,2.63
2022-09-21T00:23:37.564Z,2.25
2022-09-21T00:26:07.183Z,3.47
2022-09-21T00:28:35.222Z,3.17
2022-09-21T00:31:04.478Z,5.82
2022-09-21T00:33:34.075Z,5.22
2022-09-21T00:36:06.092Z,8.40
2022-09-21T00:38:34.107Z,9.13
2022-09-21T00:41:02.184Z,9.10
2022-09-21T00:43:30.042Z,3.23
2022-09-21T00:46:01.547Z,3.88
2022-09-21T00:48:29.863Z,3.60
2022-09-21T00:51:03.025Z,3.80
2022-09-21T00:53:32.100Z,3.35
2022-09-21T00:56:00.907Z,4.00
2022-09-21T00:58:30.370Z,3.00
2022-09-21T01:01:00.491Z,3.00
2022-09-21T01:03:29.726Z,2.33
2022-09-21T01:05:58.964Z,3.03
2022-09-21T01:08:27.741Z,4.47
2022-09-21T01:11:21.198Z,3.08
2022-09-21T01:13:57.091Z,3.92
2022-09-21T01:16:28.234Z,3.50
2022-09-21T01:19:01.101Z,4.68
2022-09-21T01:21:32.521Z,3.47
2022-09-21T01:24:42.092Z,3.80
2022-09-21T01:27:27.862Z,3.53
2022-09-21T01:29:59.927Z,3.17
2022-09-21T01:32:29.564Z,3.35
2022-09-21T01:35:01.328Z,3.72
2022-09-21T01:37:34.277Z,3.60
2022-09-21T01:40:05.010Z,4.35
2022-09-21T01:42:34.522Z,2.92
2022-09-21T01:45:07.169Z,2.92
2022-09-21T01:47:35.414Z,2.30
2022-09-21T01:50:04.468Z,2.75
2022-09-21T01:52:35.632Z,3.55
2022-09-21T01:55:08.014Z,3.40
2022-09-21T01:57:40.177Z,3.13
2022-09-21T02:00:10.904Z,3.60
2022-09-21T02:02:42.805Z,3.85
2022-09-21T02:05:11.605Z,3.85
2022-09-21T02:07:40.431Z,3.10
2022-09-21T02:10:10.112Z,2.53
2022-09-21T02:12:38.332Z,2.45
2022-09-21T02:15:06.564Z,3.33
2022-09-21T02:17:49.836Z,4.18
2022-09-21T02:20:20.939Z,3.13
2022-09-21T02:23:02.437Z,3.95
2022-09-21T02:25:38.479Z,5.22
2022-09-21T02:28:09.614Z,4.35
2022-09-21T02:30:38.194Z,3.10
2022-09-21T02:33:12.576Z,3.10
2022-09-21T11:28:17.741Z,3.80
2022-09-21T11:31:11.844Z,3.08
2022-09-21T11:33:53.504Z,1.80
2022-09-21T11:36:29.502Z,4.10
2022-09-21T11:39:01.279Z,3.05
2022-09-21T11:41:54.967Z,2.25
2022-09-21T11:44:45.280Z,1.48
2022-09-21T11:47:34.449Z,3.28
2022-09-21T11:50:33.365Z,1.85
2022-09-21T11:53:20.484Z,2.00
2022-09-21T11:56:12.882Z,2.65
2022-09-21T11:58:45.133Z,1.88
2022-09-21T12:01:24.628Z,1.50
2022-09-21T12:04:04.485Z,1.50
2022-09-21T12:06:44.314Z,2.75
2022-09-21T12:09:34.395Z,2.15
2022-09-21T12:12:06.889Z,1.27
2022-09-21T12:17:16.332Z,2.42
2022-09-21T12:19:48.386Z,1.58
2022-09-21T12:22:19.519Z,2.47
2022-09-21T12:24:49.034Z,3.30
2022-09-21T12:27:24.462Z,2.83
2022-09-21T12:29:54.737Z,2.00
2022-09-21T12:32:27.024Z,3.00
2022-09-21T12:34:57.111Z,2.03
2022-09-21T12:37:28.055Z,2.95
2022-09-21T12:40:02.231Z,2.40
2022-09-21T12:42:34.508Z,3.42
2022-09-21T12:45:05.051Z,3.50
2022-09-21T12:47:42.772Z,2.67
2022-09-21T12:50:19.366Z,3.25
2022-09-21T12:52:47.236Z,3.65
2022-09-21T12:55:26.084Z,3.08
2022-09-21T12:58:15.211Z,3.85
2022-09-21T13:00:58.690Z,2.70
2022-09-21T13:03:32.100Z,2.30
2022-09-21T13:06:23.877Z,1.73
2022-09-21T13:08:51.903Z,2.67
2022-09-21T13:11:21.653Z,2.10
2022-09-21T13:13:52.848Z,4.35
2022-09-21T13:16:26.295Z,2.67
2022-09-21T13:18:59.053Z,2.23
2022-09-21T13:21:29.812Z,2.50
2022-09-21T13:23:58.934Z,1.70
2022-09-21T13:26:33.968Z,2.42
2022-09-21T13:29:07.787Z,2.42
2022-09-21T13:31:57.498Z,2.85
2022-09-21T13:34:32.618Z,1.73
2022-09-21T13:37:36.328Z,2.00
2022-09-21T13:40:40.190Z,2.20
2022-09-21T13:46:08.572Z,2.93
2022-09-21T13:48:37.338Z,2.55
2022-09-21T13:51:10.776Z,2.08
2022-09-21T13:53:41.985Z,2.13
2022-09-21T13:56:21.455Z,2.03
2022-09-21T13:58:52.786Z,1.80
2022-09-21T14:01:45.028Z,2.60
2022-09-21T14:04:20.842Z,3.23
2022-09-21T14:09:22.828Z,2.70
2022-09-21T14:11:57.493Z,1.85
2022-09-21T14:14:28.771Z,2.80
2022-09-21T14:16:58.644Z,2.90
2022-09-21T14:22:32.992Z,2.05
2022-09-21T14:25:27.277Z,1.88
2022-09-21T14:27:55.537Z,2.67
2022-09-21T14:30:25.066Z,2.60
2022-09-21T14:32:55.920Z,4.72
2022-09-21T14:35:28.152Z,3.93
2022-09-21T14:38:01.612Z,3.50
2022-09-21T14:40:33.674Z,1.83
2022-09-21T14:43:03.437Z,2.58
2022-09-21T14:45:42.468Z,3.22
2022-09-21T14:48:13.034Z,2.17
2022-09-21T14:50:44.857Z,1.92
2022-09-21T14:53:39.168Z,2.42
2022-09-21T14:56:22.444Z,3.22
2022-09-21T14:59:01.187Z,2.10
2022-09-21T15:01:41.321Z,2.28
2022-09-21T15:04:27.619Z,4.57
2022-09-21T15:07:21.014Z,4.47
2022-09-21T15:10:32.930Z,1.90
2022-09-21T15:13:07.100Z,2.03
2022-09-21T15:15:38.358Z,1.73
2022-09-21T15:18:17.872Z,2.45
2022-09-21T15:20:46.243Z,2.45
2022-09-21T15:23:19.289Z,1.95
2022-09-21T15:25:58.836Z,1.63
2022-09-21T15:28:28.298Z,1.93
2022-09-21T15:30:58.416Z,1.77
2022-09-21T15:34:07.772Z,1.90
2022-09-21T15:36:38.425Z,2.53
2022-09-21T15:39:06.685Z,2.55
2022-09-21T15:41:43.058Z,2.78
2022-09-21T15:44:15.880Z,3.38
2022-09-21T15:46:46.922Z,1.80
2022-09-21T15:49:21.966Z,1.75
2022-09-21T15:53:55.783Z,0.98
2022-09-21T15:56:25.778Z,1.98
2022-09-21T15:59:05.070Z,1.13
2022-09-21T16:01:32.778Z,1.60
2022-09-21T16:04:05.437Z,1.85
2022-09-21T16:06:37.887Z,1.25
2022-09-21T16:09:34.370Z,1.70
2022-09-21T16:12:02.462Z,1.45
2022-09-21T16:14:47.963Z,1.20
2022-09-21T16:17:24.730Z,1.40
2022-09-21T16:20:19.503Z,0.80
2022-09-21T16:22:49.016Z,2.10
2022-09-21T16:25:34.436Z,1.55
2022-09-21T16:28:03.816Z,2.22
2022-09-21T16:30:51.119Z,1.20
2022-09-21T16:33:41.017Z,3.53
2022-09-21T16:36:40.616Z,1.13
2022-09-21T16:39:15.524Z,1.67
2022-09-21T16:41:48.477Z,3.30
2022-09-21T16:44:20.777Z,0.70
2022-09-21T16:46:53.179Z,1.80
2022-09-21T16:49:24.805Z,2.10
2022-09-21T16:51:55.805Z,1.08
2022-09-21T16:54:25.167Z,1.77
2022-09-21T16:56:55.533Z,1.30
2022-09-21T16:59:23.362Z,2.33
2022-09-21T17:01:56.070Z,0.60
2022-09-21T17:04:25.971Z,0.85
2022-09-21T17:06:55.080Z,2.00
2022-09-21T17:09:29.152Z,1.30
2022-09-21T17:12:01.590Z,2.33
2022-09-21T17:14:35.225Z,2.45
2022-09-21T17:17:05.691Z,1.95
2022-09-21T17:19:33.608Z,2.05
2022-09-21T17:22:01.286Z,2.67
2022-09-21T17:24:49.365Z,1.30
2022-09-21T17:27:19.684Z,1.63
2022-09-21T17:29:49.891Z,1.52
2022-09-21T17:32:47.776Z,5.35
2022-09-21T17:35:18.559Z,5.03
2022-09-21T17:37:46.290Z,41.33
2022-09-21T17:40:15.405Z,7.95
2022-09-21T17:42:46.454Z,4.57
2022-09-21T17:45:19.092Z,2.55
2022-09-21T17:47:50.244Z,1.70
2022-09-21T17:50:24.190Z,2.80
2022-09-21T17:53:10.057Z,4.43
2022-09-21T17:55:39.165Z,39.17
2022-09-21T17:58:14.960Z,44.30
2022-09-21T18:00:50.372Z,17.70
2022-09-21T18:03:22.450Z,5.93
2022-09-21T18:05:52.744Z,5.40
2022-09-21T18:08:20.797Z,4.03
2022-09-21T18:10:56.876Z,3.40
2022-09-21T18:13:29.502Z,2.60
2022-09-21T18:16:06.323Z,4.03
2022-09-21T18:18:46.778Z,4.30
2022-09-21T18:21:18.245Z,2.58
2022-09-21T18:23:59.535Z,3.83
2022-09-21T18:26:27.520Z,10.82
2022-09-21T18:28:58.225Z,9.63
2022-09-21T18:31:44.939Z,7.93
2022-09-21T18:34:29.186Z,6.82
2022-09-21T18:37:00.370Z,6.90
2022-09-21T18:39:35.540Z,7.47
2022-09-21T18:42:12.832Z,10.03
2022-09-21T18:44:44.254Z,10.60
2022-09-21T18:47:16.275Z,10.45
2022-09-21T18:49:51.285Z,9.77
2022-09-21T18:52:32.161Z,9.03
2022-09-21T18:55:00.101Z,10.02
2022-09-21T18:57:32.271Z,9.95
2022-09-21T19:00:00.496Z,10.45
2022-09-21T19:02:29.219Z,14.98
2022-09-21T19:04:59.182Z,17.10
2022-09-21T19:07:30.769Z,18.70
2022-09-21T19:10:06.876Z,18.52
2022-09-21T19:12:48.264Z,19.27
2022-09-21T19:15:42.295Z,22.17
2022-09-21T19:18:20.106Z,17.15
2022-09-21T19:21:00.060Z,15.63
2022-09-21T19:23:45.259Z,15.60
2022-09-21T19:26:16.442Z,16.13
2022-09-21T19:28:55.500Z,14.43
2022-09-21T19:31:23.423Z,10.70
2022-09-21T19:33:51.799Z,9.93
2022-09-21T19:36:21.309Z,8.07
2022-09-21T19:38:49.766Z,7.82
2022-09-21T19:41:32.310Z,9.35
2022-09-21T19:44:07.333Z,9.13
2022-09-21T19:46:39.322Z,10.20
2022-09-21T19:49:13.896Z,9.20
2022-09-21T19:51:46.812Z,7.67
2022-09-21T19:54:33.832Z,7.40
2022-09-21T19:57:19.692Z,7.43
2022-09-21T19:59:48.336Z,6.72
2022-09-21T20:02:18.483Z,7.13
2022-09-21T20:04:50.750Z,7.57
2022-09-21T20:07:27.555Z,7.82
2022-09-21T20:10:06.515Z,9.48
2022-09-21T20:12:38.438Z,9.20
2022-09-21T20:15:12.914Z,9.48
2022-09-21T20:17:45.982Z,14.40
2022-09-21T20:20:17.942Z,17.90
2022-09-21T20:22:47.379Z,22.42
2022-09-21T20:25:21.748Z,22.60
2022-09-21T20:27:51.492Z,21.35
2022-09-21T20:30:22.230Z,17.52
2022-09-21T20:32:52.346Z,14.73
2022-09-21T20:35:21.957Z,13.70
2022-09-21T20:37:51.763Z,12.00
2022-09-21T20:40:20.535Z,11.70
2022-09-21T20:42:48.330Z,11.67
2022-09-21T20:45:16.235Z,10.98
2022-09-21T20:47:44.001Z,9.80
2022-09-21T20:50:13.449Z,9.00
2022-09-21T20:52:41.878Z,9.70
2022-09-21T20:55:13.412Z,9.40
2022-09-21T20:57:41.497Z,9.23
2022-09-21T21:00:11.222Z,8.65
2022-09-21T21:02:38.973Z,9.30
2022-09-21T21:05:07.986Z,8.07
2022-09-21T21:07:36.539Z,8.35
2022-09-21T21:10:04.713Z,7.63
2022-09-21T21:12:33.893Z,7.55
2022-09-21T21:15:01.626Z,8.57
2022-09-21T21:17:29.364Z,6.68
2022-09-21T21:19:57.230Z,8.20
2022-09-21T21:22:24.949Z,6.65
2022-09-21T21:24:52.805Z,7.25
2022-09-21T21:27:22.819Z,7.07
2022-09-21T21:29:52.869Z,7.30
2022-09-21T21:32:23.097Z,5.95
2022-09-21T21:34:51.216Z,6.13
2022-09-21T21:37:19.880Z,8.77
2022-09-21T21:39:47.708Z,7.15
2022-09-21T21:42:15.730Z,7.40
2022-09-21T21:44:43.726Z,8.15
2022-09-21T21:47:38.166Z,8.23
2022-09-21T21:50:00.760Z,7.47
2022-09-21T21:52:28.714Z,7.03
2022-09-21T21:54:56.371Z,8.65
2022-09-21T21:57:24.167Z,7.65
2022-09-21T21:59:52.002Z,6.93
2022-09-21T22:02:21.255Z,6.60
2022-09-21T22:04:49.064Z,6.07
2022-09-21T22:07:16.725Z,5.88
2022-09-21T22:09:44.652Z,6.53
2022-09-21T22:12:12.547Z,6.05
2022-09-21T22:14:40.411Z,5.95
2022-09-21T22:17:08.151Z,7.82
2022-09-21T22:19:37.932Z,6.43
2022-09-21T22:22:06.114Z,6.47
2022-09-21T22:24:33.782Z,6.77
2022-09-21T22:27:01.425Z,6.78
2022-09-21T22:29:29.141Z,6.83
2022-09-21T22:31:56.791Z,6.22
2022-09-21T22:34:24.490Z,6.70
2022-09-21T22:36:53.866Z,6.18
2022-09-21T22:39:21.562Z,6.38
2022-09-21T22:41:49.246Z,6.03
2022-09-21T22:44:17.255Z,5.28
2022-09-21T22:46:44.948Z,5.03
2022-09-21T22:49:12.635Z,4.85
2022-09-21T22:51:40.351Z,4.22
2022-09-21T22:54:09.438Z,3.83
2022-09-21T22:56:37.233Z,4.15
2022-09-21T22:59:06.060Z,4.13
2022-09-21T23:01:35.218Z,3.88
2022-09-21T23:04:05.055Z,3.40
2022-09-21T23:06:35.086Z,3.65
2022-09-21T23:09:05.161Z,3.20
2022-09-21T23:11:35.531Z,3.50
2022-09-21T23:14:03.592Z,3.33
2022-09-21T23:16:31.650Z,3.28
2022-09-21T23:18:59.625Z,4.32
2022-09-21T23:21:29.396Z,2.80
2022-09-21T23:23:59.729Z,2.85
2022-09-21T23:26:28.502Z,2.78
2022-09-21T23:28:59.316Z,2.72
2022-09-21T23:31:27.777Z,2.90
2022-09-21T23:33:57.217Z,3.70
2022-09-21T23:36:29.594Z,2.47
2022-09-21T23:38:57.658Z,2.78
2022-09-21T23:41:27.129Z,2.70
2022-09-21T23:43:55.386Z,3.70
2022-09-21T23:46:26.227Z,2.33
2022-09-21T23:48:54.090Z,2.53
2022-09-21T23:51:22.065Z,2.45
2022-09-21T23:53:49.878Z,2.70
2022-09-21T23:56:19.333Z,2.75
2022-09-21T23:58:48.082Z,2.65
